createdAt,value
2023-02-28T00:00:30.638Z,73.81
2023-02-28T00:02:59.980Z,73.48
2023-02-28T00:05:36.574Z,74.29
2023-02-28T00:08:09.949Z,74.15
2023-02-28T00:10:44.112Z,73.55
2023-02-28T00:13:17.631Z,73.73
2023-02-28T00:15:45.280Z,73.59
2023-02-28T00:18:19.586Z,73.70
2023-02-28T00:20:46.838Z,74.25
2023-02-28T00:23:24.310Z,74.07
2023-02-28T00:25:51.604Z,73.95
2023-02-28T00:28:25.716Z,73.99
2023-02-28T00:30:52.416Z,74.18
2023-02-28T00:33:25.696Z,73.82
2023-02-28T00:35:58.660Z,74.21
2023-02-28T00:38:39.493Z,73.95
2023-02-28T00:41:06.733Z,74.21
2023-02-28T00:43:43.777Z,74.01
2023-02-28T00:46:10.423Z,73.61
2023-02-28T00:48:43.682Z,73.90
2023-02-28T00:51:10.431Z,73.67
2023-02-28T00:53:37.051Z,73.57
2023-02-28T00:56:12.039Z,73.56
2023-02-28T00:58:38.796Z,73.79
2023-02-28T01:01:11.649Z,73.95
2023-02-28T01:03:39.330Z,73.74
2023-02-28T01:06:13.129Z,73.46
2023-02-28T01:08:39.702Z,73.78
2023-02-28T01:11:18.636Z,73.92
2023-02-28T01:13:46.585Z,74.08
2023-02-28T01:16:20.686Z,74.46
2023-02-28T01:18:47.596Z,74.24
2023-02-28T01:21:23.670Z,74.29
2023-02-28T01:23:51.274Z,74.35
2023-02-28T01:26:27.654Z,74.21
2023-02-28T01:28:54.718Z,74.32
2023-02-28T01:31:30.064Z,74.19
2023-02-28T01:34:03.715Z,74.27
2023-02-28T01:36:44.803Z,74.32
2023-02-28T01:39:17.728Z,74.08
2023-02-28T01:41:51.683Z,74.29
2023-02-28T01:44:57.941Z,74.43
2023-02-28T01:47:37.713Z,74.19
2023-02-28T01:50:18.142Z,74.69
2023-02-28T01:52:46.941Z,74.43
2023-02-28T01:55:23.455Z,74.65
2023-02-28T01:57:56.226Z,74.25
2023-02-28T02:00:34.615Z,74.36
2023-02-28T02:03:10.418Z,74.57
2023-02-28T02:05:46.901Z,74.68
2023-02-28T02:08:16.654Z,74.89
2023-02-28T02:11:02.918Z,75.17
2023-02-28T02:13:49.726Z,75.64
2023-02-28T02:16:24.182Z,75.40
2023-02-28T02:19:05.709Z,75.35
2023-02-28T02:21:57.345Z,74.95
2023-02-28T02:25:06.773Z,75.22
2023-02-28T02:27:53.483Z,75.65
2023-02-28T02:30:45.404Z,75.51
2023-02-28T02:33:56.698Z,75.62
2023-02-28T02:37:19.043Z,75.34
2023-02-28T02:40:02.879Z,75.53
2023-02-28T02:42:44.705Z,75.50
2023-02-28T02:45:26.977Z,75.06
2023-02-28T02:48:03.777Z,75.28
2023-02-28T02:50:44.817Z,75.06
2023-02-28T02:53:21.026Z,75.49
2023-02-28T02:55:55.730Z,75.39
2023-02-28T02:58:42.803Z,75.36
2023-02-28T03:01:18.102Z,75.22
2023-02-28T03:03:53.832Z,75.23
2023-02-28T03:06:29.748Z,75.76
2023-02-28T03:08:56.505Z,76.05
2023-02-28T03:11:31.044Z,76.07
2023-02-28T03:14:11.087Z,75.93
2023-02-28T03:17:26.700Z,76.05
2023-02-28T03:20:25.779Z,76.27
2023-02-28T03:22:59.649Z,75.90
2023-02-28T03:25:43.295Z,75.56
2023-02-28T03:28:34.731Z,75.76
2023-02-28T03:31:22.268Z,75.80
2023-02-28T03:34:03.758Z,76.07
2023-02-28T03:36:45.105Z,76.07
2023-02-28T03:39:43.700Z,76.06
2023-02-28T03:42:30.088Z,76.10
2023-02-28T03:45:12.645Z,76.70
2023-02-28T03:48:02.849Z,76.36
2023-02-28T03:50:39.685Z,76.49
2023-02-28T03:53:12.764Z,77.00
2023-02-28T03:56:07.757Z,77.54
2023-02-28T03:59:20.450Z,76.40
2023-02-28T04:01:55.817Z,77.35
2023-02-28T04:04:23.648Z,77.13
2023-02-28T04:07:07.746Z,76.76
2023-02-28T04:09:40.760Z,76.61
2023-02-28T04:12:14.724Z,77.04
2023-02-28T04:14:41.305Z,76.99
2023-02-28T04:17:14.744Z,76.97
2023-02-28T04:19:41.353Z,76.54
2023-02-28T04:22:15.698Z,76.68
2023-02-28T04:24:42.909Z,76.81
2023-02-28T04:27:16.711Z,77.11
2023-02-28T04:29:45.652Z,77.12
2023-02-28T04:32:18.874Z,77.12
2023-02-28T04:34:51.838Z,77.23
2023-02-28T04:37:36.756Z,77.25
2023-02-28T04:40:04.994Z,76.92
2023-02-28T04:42:43.727Z,76.64
2023-02-28T04:45:11.426Z,76.73
2023-02-28T04:47:44.706Z,76.88
2023-02-28T04:50:17.876Z,77.06
2023-02-28T04:52:44.668Z,76.97
2023-02-28T04:55:17.790Z,76.69
2023-02-28T04:57:44.411Z,77.01
2023-02-28T05:00:18.823Z,76.57
2023-02-28T05:02:45.499Z,76.80
2023-02-28T05:05:19.788Z,76.67
2023-02-28T05:07:52.766Z,76.76
2023-02-28T05:10:25.832Z,76.99
2023-02-28T05:12:52.466Z,76.81
2023-02-28T05:15:19.200Z,77.23
2023-02-28T05:17:52.752Z,77.17
2023-02-28T05:20:19.580Z,77.20
2023-02-28T05:22:52.769Z,77.23
2023-02-28T05:25:23.176Z,77.42
2023-02-28T05:27:56.771Z,77.40
2023-02-28T05:30:23.486Z,77.29
2023-02-28T05:32:58.765Z,77.28
2023-02-28T05:35:32.939Z,77.16
2023-02-28T05:38:12.740Z,77.09
2023-02-28T05:40:41.518Z,77.15
2023-02-28T05:43:17.806Z,77.24
2023-02-28T05:45:54.891Z,77.42
2023-02-28T05:48:27.702Z,77.14
2023-02-28T05:51:00.786Z,77.09
2023-02-28T05:53:27.683Z,77.40
2023-02-28T05:56:00.799Z,77.28
2023-02-28T05:58:31.703Z,77.24
2023-02-28T06:01:06.784Z,77.21
2023-02-28T06:03:33.479Z,77.11
2023-02-28T06:06:09.754Z,77.28
2023-02-28T06:08:36.457Z,77.42
2023-02-28T06:11:12.734Z,77.56
2023-02-28T06:13:39.663Z,77.46
2023-02-28T06:16:12.800Z,77.44
2023-02-28T06:18:46.772Z,77.43
2023-02-28T06:21:20.782Z,77.74
2023-02-28T06:23:47.570Z,78.08
2023-02-28T06:26:20.735Z,78.22
2023-02-28T06:28:54.748Z,78.03
2023-02-28T06:31:22.213Z,77.92
2023-02-28T06:33:55.844Z,77.63
2023-02-28T06:36:42.795Z,77.72
2023-02-28T06:39:16.862Z,77.01
2023-02-28T06:41:54.816Z,76.99
2023-02-28T06:44:28.801Z,76.60
2023-02-28T06:46:55.464Z,76.42
2023-02-28T06:49:28.806Z,75.82
2023-02-28T06:51:55.337Z,75.19
2023-02-28T06:54:28.820Z,74.78
2023-02-28T06:57:01.761Z,74.58
2023-02-28T06:59:34.855Z,74.52
2023-02-28T07:02:03.342Z,74.07
2023-02-28T07:04:37.061Z,73.46
2023-02-28T07:07:03.748Z,73.18
2023-02-28T07:09:37.841Z,72.82
2023-02-28T07:12:10.822Z,72.60
2023-02-28T07:14:38.490Z,72.37
2023-02-28T07:17:11.889Z,71.93
2023-02-28T07:19:41.519Z,71.52
2023-02-28T07:22:15.962Z,71.48
2023-02-28T07:24:42.792Z,71.08
2023-02-28T07:27:15.868Z,70.69
2023-02-28T07:29:42.552Z,70.74
2023-02-28T07:32:15.820Z,70.74
2023-02-28T07:34:42.615Z,70.35
2023-02-28T07:37:22.750Z,70.04
2023-02-28T07:39:49.445Z,70.01
2023-02-28T07:42:22.825Z,70.09
2023-02-28T07:44:49.598Z,69.74
2023-02-28T07:47:25.138Z,69.09
2023-02-28T07:49:58.851Z,68.94
2023-02-28T07:52:25.509Z,68.85
2023-02-28T07:54:58.856Z,67.84
2023-02-28T07:57:25.614Z,67.17
2023-02-28T07:59:58.790Z,67.31
2023-02-28T08:02:29.166Z,66.49
2023-02-28T08:05:02.867Z,65.94
2023-02-28T08:07:29.742Z,65.60
2023-02-28T08:10:02.876Z,64.36
2023-02-28T08:12:29.599Z,63.48
2023-02-28T08:15:02.878Z,64.02
2023-02-28T08:17:29.634Z,63.58
2023-02-28T08:20:09.891Z,62.92
2023-02-28T08:22:45.739Z,62.61
2023-02-28T08:25:14.028Z,62.70
2023-02-28T08:27:47.910Z,61.82
2023-02-28T08:30:15.569Z,62.39
2023-02-28T08:32:48.832Z,59.54
2023-02-28T08:35:21.950Z,59.57
2023-02-28T08:38:01.914Z,57.44
2023-02-28T08:40:28.549Z,58.68
2023-02-28T08:43:01.943Z,58.45
2023-02-28T08:45:28.651Z,58.98
2023-02-28T08:48:02.847Z,52.00
2023-02-28T08:50:29.648Z,54.97
2023-02-28T08:53:02.941Z,53.22
2023-02-28T08:55:29.568Z,53.22
2023-02-28T08:58:02.897Z,53.60
2023-02-28T09:00:36.018Z,54.15
2023-02-28T09:03:02.909Z,54.69
2023-02-28T09:05:37.870Z,54.72
2023-02-28T09:08:04.716Z,54.80
2023-02-28T09:10:37.895Z,54.14
2023-02-28T09:13:04.525Z,54.25
2023-02-28T09:15:37.902Z,52.38
2023-02-28T09:18:04.614Z,52.02
2023-02-28T09:20:37.872Z,51.28
2023-02-28T09:23:04.524Z,51.68
2023-02-28T09:25:37.902Z,52.00
2023-02-28T09:28:05.269Z,53.00
2023-02-28T09:30:38.959Z,51.70
2023-02-28T09:33:05.604Z,48.61
2023-02-28T09:35:38.904Z,46.28
2023-02-28T09:38:12.971Z,47.26
2023-02-28T09:41:07.858Z,45.13
2023-02-28T09:43:46.082Z,42.84
2023-02-28T09:46:28.307Z,44.50
2023-02-28T09:49:03.824Z,44.17
2023-02-28T09:51:47.573Z,42.85
2023-02-28T09:54:27.232Z,41.61
2023-02-28T09:57:09.913Z,41.38
2023-02-28T09:59:51.917Z,38.70
2023-02-28T10:02:46.886Z,38.11
2023-02-28T10:05:16.775Z,36.79
2023-02-28T10:08:15.892Z,39.68
2023-02-28T10:10:44.069Z,39.14
2023-02-28T10:13:29.898Z,37.29
2023-02-28T10:16:08.033Z,38.01
2023-02-28T10:19:09.907Z,37.26
2023-02-28T10:21:42.123Z,36.20
2023-02-28T10:24:51.872Z,37.07
2023-02-28T10:27:28.373Z,37.04
2023-02-28T10:30:04.094Z,35.30
2023-02-28T10:32:34.132Z,35.84
2023-02-28T10:35:30.910Z,34.78
2023-02-28T10:38:16.588Z,36.65
2023-02-28T10:40:49.896Z,35.56
2023-02-28T10:43:16.672Z,35.64
2023-02-28T10:46:17.073Z,35.13
2023-02-28T10:48:58.309Z,34.62
2023-02-28T10:51:32.271Z,34.71
2023-02-28T10:54:02.077Z,35.65
2023-02-28T10:56:36.898Z,35.07
2023-02-28T10:59:09.680Z,33.65
2023-02-28T11:02:01.041Z,32.50
2023-02-28T11:04:31.055Z,33.66
2023-02-28T11:07:10.880Z,32.59
2023-02-28T11:09:41.247Z,33.46
2023-02-28T11:12:26.872Z,32.43
2023-02-28T11:14:58.301Z,31.12
2023-02-28T11:17:34.908Z,32.59
2023-02-28T11:20:24.506Z,33.64
2023-02-28T11:22:58.886Z,32.24
2023-02-28T11:25:34.942Z,31.00
2023-02-28T11:28:42.005Z,31.94
2023-02-28T11:31:17.622Z,31.72
2023-02-28T11:33:57.963Z,31.00
2023-02-28T11:36:45.953Z,31.06
2023-02-28T11:39:26.888Z,31.60
2023-02-28T11:41:56.947Z,30.07
2023-02-28T11:45:02.941Z,31.67
2023-02-28T11:47:32.755Z,30.63
2023-02-28T11:50:27.963Z,30.22
2023-02-28T11:53:03.963Z,31.94
2023-02-28T11:55:47.084Z,31.22
2023-02-28T11:58:34.739Z,31.13
2023-02-28T12:01:16.999Z,30.97
2023-02-28T12:03:55.752Z,31.78
2023-02-28T12:06:52.908Z,29.38
2023-02-28T12:09:45.776Z,30.02
2023-02-28T12:12:37.920Z,30.19
2023-02-28T12:15:45.233Z,30.60
2023-02-28T12:18:30.945Z,28.99
2023-02-28T12:21:23.340Z,28.96
2023-02-28T12:24:17.028Z,30.13
2023-02-28T12:26:51.931Z,29.97
2023-02-28T12:29:25.257Z,28.92
2023-02-28T12:32:08.184Z,28.58
2023-02-28T12:34:47.493Z,29.19
2023-02-28T12:37:28.561Z,28.09
2023-02-28T12:40:20.118Z,28.28
2023-02-28T12:42:58.940Z,30.80
2023-02-28T12:45:43.151Z,29.40
2023-02-28T12:48:15.790Z,29.97
2023-02-28T12:50:50.022Z,30.26
2023-02-28T12:53:34.003Z,29.40
2023-02-28T12:56:17.925Z,27.95
2023-02-28T12:58:52.961Z,28.19
2023-02-28T13:01:35.036Z,28.11
2023-02-28T13:04:39.927Z,28.75
2023-02-28T13:07:37.021Z,27.52
2023-02-28T13:10:14.933Z,26.85
2023-02-28T13:12:56.031Z,27.52
2023-02-28T13:15:35.964Z,28.26
2023-02-28T13:19:08.952Z,29.45
2023-02-28T13:21:44.523Z,29.22
2023-02-28T13:24:18.956Z,28.07
2023-02-28T13:26:51.520Z,28.09
2023-02-28T13:29:24.954Z,28.77
2023-02-28T13:32:07.049Z,28.24
2023-02-28T13:34:45.090Z,28.09
2023-02-28T13:37:27.118Z,27.16
2023-02-28T13:40:05.057Z,26.90
2023-02-28T13:42:31.664Z,27.12
2023-02-28T13:45:10.954Z,26.69
2023-02-28T13:47:48.977Z,27.45
2023-02-28T13:50:43.985Z,26.31
2023-02-28T13:53:16.350Z,26.45
2023-02-28T13:56:25.969Z,27.42
2023-02-28T13:59:07.574Z,27.43
2023-02-28T14:01:54.428Z,26.47
2023-02-28T14:04:46.031Z,25.79
2023-02-28T14:07:28.074Z,25.97
2023-02-28T14:10:16.991Z,26.76
2023-02-28T14:12:52.418Z,27.06
2023-02-28T14:15:40.979Z,26.75
2023-02-28T14:18:27.043Z,26.92
2023-02-28T14:21:17.870Z,26.43
2023-02-28T14:24:15.941Z,26.80
2023-02-28T14:27:04.901Z,27.48
2023-02-28T14:30:00.002Z,27.50
2023-02-28T14:32:38.706Z,27.77
2023-02-28T14:35:27.139Z,27.22
2023-02-28T14:38:00.458Z,28.27
2023-02-28T14:40:38.051Z,26.36
2023-02-28T14:43:07.168Z,27.36
2023-02-28T14:45:45.277Z,28.06
2023-02-28T14:48:11.848Z,29.11
2023-02-28T14:50:44.981Z,28.21
2023-02-28T14:53:26.044Z,27.86
2023-02-28T14:56:00.026Z,27.64
2023-02-28T14:58:32.648Z,27.99
2023-02-28T15:01:08.014Z,28.63
2023-02-28T15:03:47.140Z,27.81
2023-02-28T15:06:24.174Z,28.80
2023-02-28T15:09:24.015Z,29.07
2023-02-28T15:11:51.460Z,28.44
2023-02-28T15:14:27.982Z,28.62
2023-02-28T15:17:08.068Z,28.66
2023-02-28T15:19:41.324Z,28.04
2023-02-28T15:22:24.040Z,29.24
2023-02-28T15:24:56.012Z,28.96
2023-02-28T15:27:41.003Z,28.89
2023-02-28T15:30:23.015Z,29.83
2023-02-28T15:33:19.142Z,29.35
2023-02-28T15:35:53.065Z,29.97
2023-02-28T15:38:26.066Z,29.91
2023-02-28T15:41:05.055Z,29.71
2023-02-28T15:43:34.559Z,29.50
2023-02-28T15:46:13.117Z,29.21
2023-02-28T15:49:02.087Z,29.28
2023-02-28T15:51:45.193Z,29.52
2023-02-28T15:54:19.999Z,29.84
2023-02-28T15:56:59.007Z,30.39
2023-02-28T15:59:29.445Z,31.47
2023-02-28T16:02:18.163Z,32.07
2023-02-28T16:05:19.566Z,32.72
2023-02-28T16:07:53.155Z,33.09
2023-02-28T16:10:26.135Z,33.82
2023-02-28T16:12:54.954Z,34.12
2023-02-28T16:15:24.130Z,34.78
2023-02-28T16:17:58.358Z,34.92
2023-02-28T16:20:32.092Z,35.06
2023-02-28T16:23:09.207Z,35.63
2023-02-28T16:25:45.308Z,36.29
2023-02-28T16:28:28.083Z,36.33
2023-02-28T16:30:55.145Z,36.49
2023-02-28T16:33:28.041Z,37.31
2023-02-28T16:36:01.076Z,38.48
2023-02-28T16:38:35.222Z,39.72
2023-02-28T16:41:09.119Z,38.33
2023-02-28T16:43:35.725Z,39.26
2023-02-28T16:46:12.382Z,38.57
2023-02-28T16:48:40.578Z,38.51
2023-02-28T16:51:19.118Z,38.39
2023-02-28T16:53:46.718Z,38.61
2023-02-28T16:56:31.078Z,39.42
2023-02-28T16:59:01.800Z,39.17
2023-02-28T17:01:37.179Z,39.59
2023-02-28T17:04:04.095Z,39.63
2023-02-28T17:06:38.088Z,40.86
2023-02-28T17:09:04.767Z,40.75
2023-02-28T17:11:31.852Z,40.69
2023-02-28T17:14:15.127Z,40.20
2023-02-28T17:16:56.157Z,41.73
2023-02-28T17:19:29.449Z,41.81
2023-02-28T17:22:02.071Z,41.40
2023-02-28T17:24:38.200Z,42.03
2023-02-28T17:27:05.408Z,41.90
2023-02-28T17:29:38.041Z,42.57
2023-02-28T17:32:16.987Z,43.35
2023-02-28T17:34:51.053Z,43.75
2023-02-28T17:37:24.192Z,44.71
2023-02-28T17:39:57.175Z,45.71
2023-02-28T17:42:23.802Z,46.05
2023-02-28T17:44:57.132Z,46.19
2023-02-28T17:47:23.739Z,46.50
2023-02-28T17:49:57.191Z,47.28
2023-02-28T17:52:30.133Z,46.79
2023-02-28T17:55:03.117Z,47.65
2023-02-28T17:57:36.075Z,47.37
2023-02-28T18:00:07.566Z,48.32
2023-02-28T18:02:41.156Z,50.16
2023-02-28T18:05:08.877Z,50.46
2023-02-28T18:07:44.083Z,50.00
2023-02-28T18:10:20.640Z,50.25
2023-02-28T18:12:56.161Z,50.05
2023-02-28T18:15:23.438Z,49.82
2023-02-28T18:17:58.147Z,50.24
2023-02-28T18:20:24.871Z,49.49
2023-02-28T18:22:58.076Z,49.27
2023-02-28T18:25:25.324Z,49.75
2023-02-28T18:28:05.313Z,50.77
2023-02-28T18:30:35.869Z,51.49
2023-02-28T18:33:09.169Z,51.27
2023-02-28T18:35:42.441Z,51.02
2023-02-28T18:38:20.025Z,50.69
2023-02-28T18:41:08.390Z,51.20
2023-02-28T18:43:38.528Z,51.49
2023-02-28T18:46:19.205Z,51.26
2023-02-28T18:48:55.026Z,51.20
2023-02-28T18:51:32.090Z,51.65
2023-02-28T18:53:59.791Z,52.09
2023-02-28T18:56:26.693Z,52.39
2023-02-28T18:59:00.099Z,51.81
2023-02-28T19:01:40.148Z,52.45
2023-02-28T19:04:07.008Z,52.36
2023-02-28T19:06:41.122Z,53.53
2023-02-28T19:09:15.233Z,54.81
2023-02-28T19:11:49.114Z,55.01
2023-02-28T19:14:15.841Z,54.24
2023-02-28T19:16:42.592Z,54.51
2023-02-28T19:19:16.142Z,55.35
2023-02-28T19:21:42.721Z,54.92
2023-02-28T19:24:16.091Z,54.12
2023-02-28T19:26:42.917Z,55.34
2023-02-28T19:29:16.136Z,56.60
2023-02-28T19:31:42.811Z,57.36
2023-02-28T19:34:16.146Z,58.03
2023-02-28T19:36:49.154Z,58.50
2023-02-28T19:39:22.762Z,58.30
2023-02-28T19:41:56.095Z,58.70
2023-02-28T19:44:29.057Z,58.46
2023-02-28T19:47:02.150Z,58.49
2023-02-28T19:49:36.154Z,58.09
2023-02-28T19:52:13.295Z,58.82
2023-02-28T19:54:42.349Z,58.57
2023-02-28T19:57:15.179Z,58.66
2023-02-28T19:59:42.204Z,58.66
2023-02-28T20:02:25.289Z,58.63
2023-02-28T20:04:52.110Z,58.53
2023-02-28T20:07:29.148Z,58.84
2023-02-28T20:09:55.842Z,59.25
2023-02-28T20:12:30.083Z,59.08
2023-02-28T20:14:56.852Z,59.42
2023-02-28T20:17:31.374Z,59.70
2023-02-28T20:19:58.477Z,60.27
2023-02-28T20:22:32.453Z,60.60
2023-02-28T20:25:07.271Z,60.26
2023-02-28T20:28:01.116Z,60.51
2023-02-28T20:30:34.832Z,60.12
2023-02-28T20:33:08.201Z,59.95
2023-02-28T20:35:42.445Z,60.35
2023-02-28T20:38:24.619Z,60.48
2023-02-28T20:41:06.572Z,60.18
2023-02-28T20:43:34.109Z,60.17
2023-02-28T20:46:10.814Z,60.45
2023-02-28T20:48:38.450Z,60.78
2023-02-28T20:51:13.193Z,61.51
2023-02-28T20:53:39.844Z,61.70
2023-02-28T20:56:16.144Z,61.64
2023-02-28T20:58:45.763Z,61.72
2023-02-28T21:01:23.385Z,61.69
2023-02-28T21:04:02.177Z,61.40
2023-02-28T21:06:38.248Z,62.49
2023-02-28T21:09:10.005Z,62.49
2023-02-28T21:11:45.106Z,62.37
2023-02-28T21:14:15.030Z,60.94
2023-02-28T21:16:48.619Z,61.22
2023-02-28T21:19:16.403Z,61.77
2023-02-28T21:21:51.369Z,62.34
2023-02-28T21:24:20.308Z,62.28
2023-02-28T21:26:54.191Z,62.90
2023-02-28T21:29:27.129Z,62.73
2023-02-28T21:32:00.195Z,62.76
2023-02-28T21:34:33.201Z,63.00
2023-02-28T21:37:20.238Z,63.18
2023-02-28T21:39:53.226Z,63.23
2023-02-28T21:42:19.850Z,63.48
2023-02-28T21:44:53.159Z,63.93
2023-02-28T21:47:19.873Z,64.12
2023-02-28T21:49:53.238Z,64.02
2023-02-28T21:52:22.101Z,63.87
2023-02-28T21:54:55.160Z,64.33
2023-02-28T21:57:28.451Z,64.36
2023-02-28T21:59:55.271Z,64.15
2023-02-28T22:02:35.231Z,63.84
2023-02-28T22:05:05.062Z,64.05
2023-02-28T22:07:38.409Z,64.09
2023-02-28T22:10:06.925Z,62.83
2023-02-28T22:12:40.290Z,63.91
2023-02-28T22:15:07.753Z,63.83
2023-02-28T22:17:41.296Z,64.28
2023-02-28T22:20:10.192Z,64.20
2023-02-28T22:22:43.220Z,63.82
2023-02-28T22:25:10.548Z,64.14
2023-02-28T22:27:44.526Z,64.14
2023-02-28T22:30:12.874Z,64.60
2023-02-28T22:32:46.722Z,64.50
2023-02-28T22:35:13.492Z,64.68
2023-02-28T22:37:55.231Z,64.71
2023-02-28T22:40:28.266Z,64.48
2023-02-28T22:42:54.926Z,64.96
2023-02-28T22:45:28.375Z,65.19
2023-02-28T22:47:55.130Z,65.73
2023-02-28T22:50:28.466Z,65.58
2023-02-28T22:53:01.729Z,65.61
2023-02-28T22:55:29.166Z,66.03
2023-02-28T22:58:05.768Z,65.96
2023-02-28T23:00:39.289Z,66.22
2023-02-28T23:03:06.992Z,66.33
2023-02-28T23:05:40.333Z,66.16
2023-02-28T23:08:07.153Z,66.39
2023-02-28T23:10:40.276Z,66.74
2023-02-28T23:13:07.719Z,66.71
2023-02-28T23:15:41.307Z,66.84
2023-02-28T23:18:15.297Z,66.93
2023-02-28T23:20:42.129Z,66.74
2023-02-28T23:23:17.341Z,66.83
2023-02-28T23:25:45.413Z,66.77
2023-02-28T23:28:18.305Z,67.46
2023-02-28T23:30:45.164Z,67.10
2023-02-28T23:33:18.390Z,66.83
2023-02-28T23:35:45.868Z,66.85
2023-02-28T23:38:20.412Z,67.18
2023-02-28T23:40:55.257Z,67.49
2023-02-28T23:43:30.272Z,67.35
2023-02-28T23:45:58.819Z,67.74
2023-02-28T23:48:32.377Z,67.63
2023-02-28T23:51:09.675Z,67.98
2023-02-28T23:53:45.475Z,67.92
2023-02-28T23:56:17.798Z,67.85
2023-02-28T23:58:53.146Z,68.14
